Time;durP1;ratioP1;P1;durP2;ratioP2;P2;SDS_P1;SDS_P2;PMS_P1;PMS_P2;Temp;Humidity;BMP_temperature;BMP_pressure;BME280_temperature;BME280_humidity;BME280_pressure;Samples;Min_cycle;Max_cycle;Signal;HPM_P1;HPM_P2
2021/08/15 00:00:00;;;;;;;7.75;5.20;;;17.60;99.90;;;;;;5072084;28;20021;-85
2021/08/15 00:02:26;;;;;;;7.22;5.15;;;17.70;99.90;;;;;;5071790;28;20055;-85
2021/08/15 00:04:52;;;;;;;7.18;5.45;;;17.70;99.90;;;;;;5055701;28;20029;-85
2021/08/15 00:07:19;;;;;;;7.82;5.57;;;17.70;99.90;;;;;;5072505;28;20032;-85
2021/08/15 00:09:45;;;;;;;7.25;4.63;;;17.60;99.90;;;;;;5054893;28;20033;-85
2021/08/15 00:12:12;;;;;;;6.97;4.90;;;17.70;99.90;;;;;;5055465;28;20125;-85
2021/08/15 00:14:39;;;;;;;7.80;5.05;;;17.70;99.90;;;;;;5055478;28;20185;-84
2021/08/15 00:17:05;;;;;;;7.47;4.80;;;17.60;99.90;;;;;;5055361;28;20385;-86
2021/08/15 00:19:32;;;;;;;7.75;4.88;;;17.70;99.90;;;;;;5055463;28;20028;-86
2021/08/15 00:21:58;;;;;;;8.30;4.53;;;17.60;99.90;;;;;;5071730;28;20067;-86
2021/08/15 00:24:25;;;;;;;7.55;4.60;;;17.70;99.90;;;;;;5072122;28;20025;-86
2021/08/15 00:26:51;;;;;;;6.43;4.75;;;17.60;99.90;;;;;;5071880;28;20460;-86
2021/08/15 00:29:17;;;;;;;8.50;5.47;;;17.50;99.90;;;;;;5073449;28;20099;-87
2021/08/15 00:31:43;;;;;;;7.93;5.30;;;17.50;99.90;;;;;;5071363;28;20029;-86
2021/08/15 00:34:09;;;;;;;7.78;5.43;;;17.40;99.90;;;;;;5071944;28;20043;-85
2021/08/15 00:36:36;;;;;;;7.88;4.90;;;17.40;99.90;;;;;;5071822;28;20387;-86
2021/08/15 00:39:02;;;;;;;7.30;5.10;;;17.30;99.90;;;;;;5073343;28;20047;-86
2021/08/15 00:41:28;;;;;;;7.18;4.55;;;17.30;99.90;;;;;;5072632;28;20109;-86
2021/08/15 00:43:54;;;;;;;7.60;4.97;;;17.40;99.90;;;;;;5071841;28;20111;-86
2021/08/15 00:46:21;;;;;;;7.38;4.65;;;17.40;99.90;;;;;;5071818;28;20021;-86
2021/08/15 00:48:50;;;;;;;8.05;5.32;;;17.30;99.90;;;;;;5073045;28;20464;-85
2021/08/15 00:51:15;;;;;;;7.32;4.75;;;17.40;99.90;;;;;;5071133;28;20028;-86
2021/08/15 00:53:41;;;;;;;8.48;4.57;;;17.40;99.90;;;;;;5069566;28;20094;-85
2021/08/15 00:56:08;;;;;;;6.35;4.70;;;17.50;99.90;;;;;;5070684;28;20025;-86
2021/08/15 00:58:35;;;;;;;7.05;4.60;;;17.60;99.90;;;;;;5071310;28;20111;-85
2021/08/15 01:01:05;;;;;;;7.75;4.70;;;17.60;99.90;;;;;;5071188;28;20036;-85
2021/08/15 01:03:31;;;;;;;6.45;4.70;;;17.60;99.90;;;;;;5072649;28;20029;-86
2021/08/15 01:06:02;;;;;;;7.80;5.15;;;17.50;99.90;;;;;;5072180;28;20039;-86
2021/08/15 01:08:29;;;;;;;7.75;4.68;;;17.40;99.90;;;;;;5073275;28;20028;-86
2021/08/15 01:11:10;;;;;;;8.75;4.70;;;17.40;99.90;;;;;;5074985;28;20020;-85
2021/08/15 01:13:38;;;;;;;7.65;4.85;;;17.40;99.90;;;;;;5075224;28;20031;-85
2021/08/15 01:16:06;;;;;;;6.18;4.35;;;17.50;99.90;;;;;;5075112;28;20395;-86
2021/08/15 01:18:34;;;;;;;6.45;4.25;;;17.40;99.90;;;;;;5075235;28;20476;-85
2021/08/15 01:21:05;;;;;;;5.75;4.03;;;17.50;99.90;;;;;;5074962;28;20032;-86
2021/08/15 01:23:32;;;;;;;6.05;4.55;;;17.40;99.90;;;;;;5074745;28;20024;-87
2021/08/15 01:26:00;;;;;;;7.13;4.80;;;17.50;99.90;;;;;;5074865;28;20021;-86
2021/08/15 01:28:27;;;;;;;5.75;3.88;;;17.40;99.90;;;;;;5075035;28;20024;-86
2021/08/15 01:30:53;;;;;;;8.60;5.20;;;17.40;99.90;;;;;;5075057;28;20044;-87
2021/08/15 01:33:33;;;;;;;7.65;4.55;;;17.30;99.90;;;;;;5074798;28;20075;-87
2021/08/15 01:36:00;;;;;;;8.18;4.60;;;17.30;99.90;;;;;;5074967;28;20031;-87
2021/08/15 01:38:29;;;;;;;6.65;4.30;;;17.20;99.90;;;;;;5074746;28;20078;-85
2021/08/15 01:40:55;;;;;;;8.73;5.28;;;17.20;99.90;;;;;;5074808;28;20029;-85
2021/08/15 01:43:21;;;;;;;8.75;4.72;;;17.20;99.90;;;;;;5074664;28;20021;-86
2021/08/15 01:45:47;;;;;;;6.45;4.63;;;17.20;99.90;;;;;;5074788;28;20021;-86
2021/08/15 01:48:13;;;;;;;5.85;4.20;;;17.20;99.90;;;;;;5075371;28;20024;-85
2021/08/15 01:50:40;;;;;;;6.95;4.57;;;17.10;99.90;;;;;;5076123;28;20469;-86
2021/08/15 01:53:16;;;;;;;6.38;4.47;;;17.20;99.90;;;;;;5074605;28;20131;-87
2021/08/15 01:55:42;;;;;;;7.30;4.63;;;17.10;99.90;;;;;;5076238;28;20431;-87
2021/08/15 01:58:12;;;;;;;9.23;4.95;;;17.00;99.90;;;;;;5074842;28;20074;-86
2021/08/15 02:00:40;;;;;;;7.13;5.10;;;17.00;99.90;;;;;;5075983;28;20028;-85
2021/08/15 02:03:07;;;;;;;6.75;4.03;;;17.00;99.90;;;;;;5074214;28;20076;-87
2021/08/15 02:05:34;;;;;;;8.32;4.57;;;17.00;99.90;;;;;;5074191;28;20027;-86
2021/08/15 02:08:00;;;;;;;6.60;4.78;;;17.00;99.90;;;;;;5074093;28;20047;-87
2021/08/15 02:10:31;;;;;;;6.75;4.80;;;17.00;99.90;;;;;;5073678;28;20033;-86
2021/08/15 02:13:00;;;;;;;8.43;5.43;;;16.90;99.90;;;;;;5074018;28;20072;-86
2021/08/15 02:15:26;;;;;;;6.70;4.57;;;16.90;99.90;;;;;;5074093;28;20031;-87
2021/08/15 02:17:52;;;;;;;7.03;4.65;;;16.80;99.90;;;;;;5057045;28;20024;-86
2021/08/15 02:20:20;;;;;;;7.38;4.25;;;16.80;99.90;;;;;;5073755;28;20021;-86
2021/08/15 02:22:46;;;;;;;8.20;4.82;;;16.80;99.90;;;;;;5057069;28;20024;-86
2021/08/15 02:25:14;;;;;;;6.95;4.80;;;16.80;99.90;;;;;;5073669;28;20028;-85
2021/08/15 02:27:41;;;;;;;8.27;4.90;;;16.80;99.90;;;;;;5073670;28;20381;-86
2021/08/15 02:30:09;;;;;;;6.63;4.35;;;16.80;99.90;;;;;;5074948;28;20074;-86
2021/08/15 02:32:36;;;;;;;6.72;4.45;;;16.80;99.90;;;;;;5074781;28;20020;-85
2021/08/15 02:35:03;;;;;;;7.45;5.00;;;16.80;99.90;;;;;;5074807;28;20024;-86
2021/08/15 02:37:28;;;;;;;8.90;4.90;;;16.80;99.90;;;;;;5073330;28;20120;-86
2021/08/15 02:39:59;;;;;;;7.53;4.90;;;16.80;99.90;;;;;;5073162;28;20119;-86
2021/08/15 02:42:26;;;;;;;7.68;4.88;;;16.70;99.90;;;;;;5074328;28;20028;-84
2021/08/15 02:44:52;;;;;;;8.43;5.10;;;16.70;99.90;;;;;;5073415;28;20021;-85
2021/08/15 02:47:18;;;;;;;6.57;4.55;;;16.70;99.90;;;;;;5074592;28;20074;-86
2021/08/15 02:49:44;;;;;;;7.30;4.90;;;16.70;99.90;;;;;;5073239;28;20024;-87
2021/08/15 02:52:10;;;;;;;8.00;5.00;;;16.70;99.90;;;;;;5073102;28;20035;-86
2021/08/15 02:54:36;;;;;;;6.55;4.13;;;16.70;99.90;;;;;;5056787;28;20597;-86
2021/08/15 02:57:03;;;;;;;7.53;5.03;;;16.70;99.90;;;;;;5072989;28;20047;-85
2021/08/15 02:59:29;;;;;;;7.80;4.80;;;16.70;99.90;;;;;;5056317;28;20033;-86
2021/08/15 03:01:55;;;;;;;6.60;4.80;;;16.70;99.90;;;;;;5072819;28;20048;-85
2021/08/15 03:04:21;;;;;;;7.65;4.85;;;16.60;99.90;;;;;;5072943;28;20077;-86
2021/08/15 03:06:47;;;;;;;7.88;5.35;;;16.60;99.90;;;;;;5073040;28;20064;-86
2021/08/15 03:09:13;;;;;;;8.18;5.22;;;16.50;99.90;;;;;;5072904;28;20028;-85
2021/08/15 03:11:38;;;;;;;9.05;5.10;;;16.50;99.90;;;;;;5072554;28;20028;-85
2021/08/15 03:14:04;;;;;;;7.68;4.85;;;16.50;99.90;;;;;;5056285;28;20029;-86
2021/08/15 03:16:30;;;;;;;7.00;4.20;;;16.50;99.90;;;;;;5072769;28;20056;-86
2021/08/15 03:18:57;;;;;;;6.75;4.35;;;16.50;99.90;;;;;;5072748;28;20025;-85
2021/08/15 03:21:29;;;;;;;6.88;3.95;;;16.50;99.90;;;;;;5073987;28;20021;-86
2021/08/15 03:23:55;;;;;;;7.63;4.45;;;16.50;99.90;;;;;;5072685;28;20040;-87
2021/08/15 03:26:21;;;;;;;7.40;4.20;;;16.50;99.90;;;;;;5072653;28;20112;-86
2021/08/15 03:28:50;;;;;;;7.05;4.25;;;16.50;99.90;;;;;;5072713;28;20060;-87
2021/08/15 03:31:16;;;;;;;5.88;4.00;;;16.50;99.90;;;;;;5071838;28;20040;-86
2021/08/15 03:33:42;;;;;;;6.70;3.97;;;16.40;99.90;;;;;;5072509;28;20059;-87
2021/08/15 03:36:08;;;;;;;6.47;4.20;;;16.40;99.90;;;;;;5055836;28;20037;-87
2021/08/15 03:38:34;;;;;;;6.38;4.40;;;16.40;99.90;;;;;;5055724;28;20479;-86
2021/08/15 03:40:59;;;;;;;6.20;4.28;;;16.40;99.90;;;;;;5073277;28;20032;-85
2021/08/15 03:43:25;;;;;;;6.90;4.20;;;16.30;99.90;;;;;;5072293;28;20457;-86
2021/08/15 03:45:51;;;;;;;7.10;3.92;;;16.30;99.90;;;;;;5072172;28;20380;-86
2021/08/15 03:48:16;;;;;;;6.35;4.10;;;16.30;99.90;;;;;;5072250;28;20020;-86
2021/08/15 03:50:43;;;;;;;6.88;4.32;;;16.30;99.90;;;;;;5073330;28;20070;-87
2021/08/15 03:53:08;;;;;;;6.97;3.75;;;16.30;99.90;;;;;;5071966;28;20452;-87
2021/08/15 03:55:34;;;;;;;6.68;3.90;;;16.30;99.90;;;;;;5072242;28;20111;-86
2021/08/15 03:58:00;;;;;;;5.40;3.58;;;16.30;99.90;;;;;;5073185;28;20365;-86
2021/08/15 04:00:27;;;;;;;5.72;3.78;;;16.30;99.90;;;;;;5055716;28;20028;-86
2021/08/15 04:02:54;;;;;;;6.95;4.03;;;16.30;99.90;;;;;;5072204;28;20556;-86
2021/08/15 04:05:20;;;;;;;6.32;3.90;;;16.30;99.90;;;;;;5072210;28;20029;-86
2021/08/15 04:07:46;;;;;;;6.25;4.05;;;16.30;99.90;;;;;;5071887;28;20025;-85
2021/08/15 04:10:12;;;;;;;6.60;3.83;;;16.30;99.90;;;;;;5071812;28;20024;-86
2021/08/15 04:12:37;;;;;;;7.85;4.22;;;16.30;99.90;;;;;;5071931;28;20119;-85
2021/08/15 04:15:04;;;;;;;6.07;4.00;;;16.30;99.90;;;;;;5072031;28;20453;-86
2021/08/15 04:17:29;;;;;;;6.22;3.85;;;16.20;99.90;;;;;;5072047;28;20025;-85
2021/08/15 04:19:55;;;;;;;5.72;3.78;;;16.30;99.90;;;;;;5072118;28;20020;-86
2021/08/15 04:22:21;;;;;;;7.53;4.30;;;16.30;99.90;;;;;;5071927;28;20025;-87
2021/08/15 04:24:47;;;;;;;6.57;3.95;;;16.30;99.90;;;;;;5055431;28;20461;-87
2021/08/15 04:27:14;;;;;;;6.35;4.30;;;16.30;99.90;;;;;;5071575;28;20058;-86
2021/08/15 04:29:40;;;;;;;6.50;3.97;;;16.20;99.90;;;;;;5071921;28;20480;-86
2021/08/15 04:32:07;;;;;;;5.82;4.25;;;16.30;99.90;;;;;;5071808;28;20025;-86
2021/08/15 04:34:34;;;;;;;6.72;4.30;;;16.30;99.90;;;;;;5072519;28;20024;-85
2021/08/15 04:37:00;;;;;;;5.80;4.10;;;16.30;99.90;;;;;;5071843;28;20020;-86
2021/08/15 04:39:26;;;;;;;6.38;4.05;;;16.30;99.90;;;;;;5071659;28;20055;-85
2021/08/15 04:41:52;;;;;;;6.15;4.32;;;16.30;99.90;;;;;;5071809;28;20407;-85
2021/08/15 04:44:18;;;;;;;6.40;4.22;;;16.30;99.90;;;;;;5074690;28;20025;-86
2021/08/15 04:46:44;;;;;;;5.78;3.63;;;16.40;99.90;;;;;;5075351;28;20021;-87
2021/08/15 04:49:09;;;;;;;7.22;4.75;;;16.50;99.90;;;;;;5075522;28;20023;-86
2021/08/15 04:51:35;;;;;;;12.23;6.28;;;16.50;99.90;;;;;;5058622;28;20090;-86
2021/08/15 04:54:01;;;;;;;12.00;7.15;;;16.50;99.90;;;;;;5075186;28;20142;-86
2021/08/15 04:56:28;;;;;;;11.02;7.22;;;16.60;99.90;;;;;;5075509;28;20024;-87
2021/08/15 04:58:55;;;;;;;13.40;7.90;;;16.60;99.90;;;;;;5075494;28;20031;-87
2021/08/15 05:01:21;;;;;;;12.75;7.90;;;16.70;99.90;;;;;;5075173;28;20055;-87
2021/08/15 05:03:49;;;;;;;9.13;7.25;;;16.70;99.90;;;;;;5075339;28;20024;-86
2021/08/15 05:06:15;;;;;;;10.02;6.82;;;16.70;99.90;;;;;;5075267;28;20028;-87
2021/08/15 05:08:41;;;;;;;12.68;7.22;;;16.70;99.90;;;;;;5041844;28;20070;-87
2021/08/15 05:11:07;;;;;;;12.15;7.88;;;16.70;99.90;;;;;;5058081;28;20579;-86
2021/08/15 05:13:33;;;;;;;15.00;10.23;;;16.80;99.90;;;;;;5058266;28;20029;-86
2021/08/15 05:15:59;;;;;;;14.75;9.45;;;16.80;99.90;;;;;;5058350;28;20473;-86
2021/08/15 05:18:25;;;;;;;13.18;9.68;;;16.80;99.90;;;;;;5074819;28;20035;-85
2021/08/15 05:20:51;;;;;;;13.40;8.35;;;16.80;99.90;;;;;;5074701;28;20115;-86
2021/08/15 05:23:17;;;;;;;11.13;8.23;;;16.80;99.90;;;;;;5075261;28;20055;-86
2021/08/15 05:25:43;;;;;;;13.30;7.35;;;16.80;99.90;;;;;;5075679;28;20021;-86
2021/08/15 05:28:09;;;;;;;11.32;7.70;;;16.90;99.90;;;;;;5074871;28;20182;-86
2021/08/15 05:30:36;;;;;;;10.05;7.00;;;17.00;99.90;;;;;;5074082;28;20021;-87
2021/08/15 05:33:02;;;;;;;11.57;7.40;;;17.00;99.90;;;;;;5074439;28;20035;-86
2021/08/15 05:35:27;;;;;;;10.07;7.18;;;17.00;99.90;;;;;;5074673;28;20471;-86
2021/08/15 05:37:53;;;;;;;10.40;7.70;;;17.00;99.90;;;;;;5074342;28;20031;-86
2021/08/15 05:40:20;;;;;;;13.20;8.40;;;17.10;99.90;;;;;;5074317;28;20062;-86
2021/08/15 05:42:47;;;;;;;13.52;8.80;;;17.10;99.90;;;;;;5075686;28;20107;-87
2021/08/15 05:45:13;;;;;;;12.63;9.25;;;17.10;99.90;;;;;;5074551;28;20033;-86
2021/08/15 05:47:39;;;;;;;13.40;8.90;;;17.10;99.90;;;;;;5075710;28;20048;-86
2021/08/15 05:50:06;;;;;;;10.20;7.63;;;17.10;99.90;;;;;;5074493;28;20052;-86
2021/08/15 05:52:32;;;;;;;9.55;7.70;;;17.10;99.90;;;;;;5074317;28;20071;-86
2021/08/15 05:54:58;;;;;;;9.55;7.35;;;17.10;99.90;;;;;;5073874;28;20545;-87
2021/08/15 05:57:23;;;;;;;9.88;7.35;;;17.20;99.90;;;;;;5074520;28;20031;-87
2021/08/15 05:59:49;;;;;;;10.55;7.10;;;17.20;99.90;;;;;;5074260;28;20028;-86
2021/08/15 06:02:16;;;;;;;8.68;6.82;;;17.30;99.90;;;;;;5073747;28;20048;-86
2021/08/15 06:04:42;;;;;;;11.50;7.75;;;17.30;99.90;;;;;;5073798;28;20123;-88
2021/08/15 06:07:10;;;;;;;11.95;9.30;;;17.30;99.90;;;;;;5074111;28;20115;-86
2021/08/15 06:09:36;;;;;;;13.60;10.32;;;17.40;99.90;;;;;;5075108;28;20021;-86
2021/08/15 06:12:05;;;;;;;14.40;10.27;;;17.40;99.90;;;;;;5073893;28;20092;-86
2021/08/15 06:14:34;;;;;;;12.60;9.38;;;17.40;99.90;;;;;;5073929;28;20115;-86
2021/08/15 06:17:00;;;;;;;13.57;9.93;;;17.40;99.90;;;;;;5057467;28;20039;-87
2021/08/15 06:19:26;;;;;;;15.77;11.00;;;17.40;99.90;;;;;;5073608;28;20031;-87
2021/08/15 06:21:53;;;;;;;11.30;9.48;;;17.50;99.90;;;;;;5074734;28;20112;-86
2021/08/15 06:24:18;;;;;;;13.43;10.43;;;17.50;99.90;;;;;;5073808;28;20115;-86
2021/08/15 06:26:44;;;;;;;15.75;11.80;;;17.60;99.90;;;;;;5073647;28;20067;-87
2021/08/15 06:29:10;;;;;;;14.60;11.02;;;17.70;99.90;;;;;;5073431;28;20528;-86
2021/08/15 06:31:36;;;;;;;12.93;10.57;;;17.70;99.90;;;;;;5074855;28;20025;-86
2021/08/15 06:34:04;;;;;;;18.08;12.65;;;17.70;99.90;;;;;;5073473;28;20054;-87
2021/08/15 06:36:29;;;;;;;14.02;11.07;;;17.80;99.90;;;;;;5073609;28;20383;-87
2021/08/15 06:38:56;;;;;;;13.05;10.23;;;17.90;99.90;;;;;;5073571;28;20028;-86
2021/08/15 06:41:23;;;;;;;11.40;9.93;;;18.00;99.90;;;;;;5056751;28;20122;-86
2021/08/15 06:43:49;;;;;;;12.07;9.15;;;18.10;99.90;;;;;;5073172;28;20381;-87
2021/08/15 06:46:15;;;;;;;13.18;9.98;;;18.10;99.90;;;;;;5073260;28;20053;-88
2021/08/15 06:48:44;;;;;;;11.35;8.65;;;18.30;99.90;;;;;;5056880;28;20464;-87
2021/08/15 06:51:11;;;;;;;16.92;11.30;;;18.30;99.90;;;;;;5074514;28;20029;-87
2021/08/15 06:53:40;;;;;;;14.43;11.05;;;18.30;99.90;;;;;;5073139;28;20024;-87
2021/08/15 06:56:08;;;;;;;11.57;9.98;;;18.40;99.90;;;;;;5074495;28;20078;-86
2021/08/15 06:58:34;;;;;;;12.85;9.25;;;18.40;99.90;;;;;;5071436;28;20032;-85
2021/08/15 07:01:00;;;;;;;11.73;8.73;;;18.50;99.90;;;;;;5054023;28;20038;-85
2021/08/15 07:03:26;;;;;;;15.23;11.40;;;18.50;99.90;;;;;;5069560;28;20020;-86
2021/08/15 07:05:52;;;;;;;15.65;11.27;;;18.60;99.90;;;;;;5049945;28;20025;-86
2021/08/15 07:08:18;;;;;;;15.77;10.13;;;18.60;99.90;;;;;;5066849;28;20120;-86
2021/08/15 07:10:44;;;;;;;16.08;10.48;;;18.70;99.90;;;;;;5067143;28;20112;-86
2021/08/15 07:13:10;;;;;;;11.90;9.77;;;18.70;99.90;;;;;;5067305;28;20480;-85
2021/08/15 07:15:37;;;;;;;14.00;9.57;;;18.90;99.90;;;;;;5051364;28;20041;-86
2021/08/15 07:18:04;;;;;;;12.02;9.38;;;19.00;99.90;;;;;;5068576;28;20025;-85
2021/08/15 07:20:32;;;;;;;9.85;8.70;;;19.10;99.90;;;;;;5071904;28;20431;-85
2021/08/15 07:22:58;;;;;;;14.68;10.73;;;19.20;99.90;;;;;;5086507;28;20027;-86
2021/08/15 07:25:29;;;;;;;15.05;9.60;;;19.30;99.90;;;;;;5073435;28;20069;-87
2021/08/15 07:27:58;;;;;;;14.75;10.45;;;19.40;99.90;;;;;;5066153;28;20124;-87
2021/08/15 07:30:25;;;;;;;12.38;8.88;;;19.40;99.90;;;;;;5081678;28;20027;-87
2021/08/15 07:33:05;;;;;;;14.32;9.23;;;19.50;99.90;;;;;;5073919;28;20055;-86
2021/08/15 07:35:34;;;;;;;14.02;10.30;;;19.50;99.90;;;;;;5058923;28;20028;-87
2021/08/15 07:38:01;;;;;;;13.75;8.55;;;19.70;99.90;;;;;;5081511;28;20344;-87
2021/08/15 07:40:29;;;;;;;15.25;10.13;;;19.90;99.90;;;;;;5082045;28;20028;-89
2021/08/15 07:42:56;;;;;;;13.30;8.88;;;19.90;99.90;;;;;;5073770;28;20111;-86
2021/08/15 07:45:27;;;;;;;12.93;8.65;;;20.10;99.90;;;;;;5086136;28;20090;-86
2021/08/15 07:47:53;;;;;;;12.68;8.68;;;20.20;99.90;;;;;;5072890;28;20020;-87
2021/08/15 07:50:19;;;;;;;10.60;7.03;;;20.30;99.90;;;;;;5082036;28;20028;-87
2021/08/15 07:52:45;;;;;;;10.52;7.32;;;20.30;99.90;;;;;;5088747;28;20081;-85
2021/08/15 07:55:13;;;;;;;10.73;7.20;;;20.30;99.90;;;;;;5088737;28;20024;-85
2021/08/15 07:57:44;;;;;;;8.95;5.97;;;20.30;99.90;;;;;;5069599;28;20024;-87
2021/08/15 08:00:12;;;;;;;11.40;6.93;;;20.40;99.90;;;;;;5069660;28;20012;-88
2021/08/15 08:02:38;;;;;;;8.85;6.57;;;20.50;99.90;;;;;;5068092;28;20068;-88
2021/08/15 08:05:04;;;;;;;11.02;6.82;;;20.50;99.90;;;;;;5070743;28;20020;-88
2021/08/15 08:07:30;;;;;;;9.65;5.85;;;20.70;99.90;;;;;;5069681;28;20506;-87
2021/08/15 08:09:56;;;;;;;9.25;6.38;;;20.90;99.90;;;;;;5066608;28;20023;-86
2021/08/15 08:12:23;;;;;;;9.95;6.10;;;21.10;99.90;;;;;;5068643;28;20028;-87
2021/08/15 08:14:49;;;;;;;10.45;5.97;;;21.30;99.90;;;;;;5051865;28;20505;-87
2021/08/15 08:17:17;;;;;;;8.38;5.85;;;21.50;99.90;;;;;;5070178;28;20659;-87
2021/08/15 08:19:43;;;;;;;10.38;5.78;;;21.60;99.90;;;;;;5074448;28;20028;-87
2021/08/15 08:22:11;;;;;;;7.32;4.75;;;21.70;99.90;;;;;;5072346;28;20033;-87
2021/08/15 08:24:36;;;;;;;7.30;4.50;;;21.90;99.90;;;;;;5072883;28;20575;-87
2021/08/15 08:27:05;;;;;;;7.88;5.07;;;22.00;99.90;;;;;;5073490;28;20116;-88
2021/08/15 08:29:31;;;;;;;7.78;5.22;;;22.10;99.90;;;;;;5073793;28;20036;-87
2021/08/15 08:31:57;;;;;;;8.27;4.97;;;22.10;99.90;;;;;;5074325;28;20033;-88
2021/08/15 08:34:24;;;;;;;7.43;4.57;;;22.20;99.90;;;;;;5073951;28;20438;-88
2021/08/15 08:36:49;;;;;;;8.00;4.57;;;22.20;99.90;;;;;;5073794;28;20036;-87
2021/08/15 08:39:15;;;;;;;7.80;4.60;;;22.20;99.90;;;;;;5073339;28;20090;-86
2021/08/15 08:41:42;;;;;;;8.50;4.60;;;22.30;99.90;;;;;;5073656;28;20056;-86
2021/08/15 08:44:08;;;;;;;6.18;3.70;;;22.30;99.90;;;;;;5056688;28;20033;-86
2021/08/15 08:46:35;;;;;;;5.88;3.72;;;22.40;99.90;;;;;;5073077;28;20029;-86
2021/08/15 08:49:01;;;;;;;7.43;4.82;;;22.60;99.90;;;;;;5056204;28;20460;-87
2021/08/15 08:51:26;;;;;;;7.80;4.30;;;22.70;99.90;;;;;;5073786;28;20074;-87
2021/08/15 08:53:53;;;;;;;7.55;4.05;;;22.70;99.90;;;;;;5074222;28;20083;-87
2021/08/15 08:56:23;;;;;;;10.40;5.85;;;22.90;99.90;;;;;;5073629;28;20025;-89
2021/08/15 08:58:50;;;;;;;10.82;5.72;;;22.90;99.90;;;;;;5072959;28;20075;-88
2021/08/15 09:01:16;;;;;;;10.75;5.65;;;22.90;99.90;;;;;;5073291;28;20059;-86
2021/08/15 09:03:43;;;;;;;8.85;4.63;;;22.90;99.90;;;;;;5071689;28;20060;-87
2021/08/15 09:06:21;;;;;;;8.55;5.18;;;22.90;99.90;;;;;;5071731;28;20035;-87
2021/08/15 09:08:48;;;;;;;7.53;5.30;;;22.90;99.90;;;;;;5072429;28;20032;-87
2021/08/15 09:11:23;;;;;;;9.57;4.80;;;22.80;99.90;;;;;;5073215;28;20115;-87
2021/08/15 09:14:02;;;;;;;10.35;5.50;;;22.70;99.90;;;;;;5072529;28;20040;-88
2021/08/15 09:16:57;;;;;;;10.00;4.68;;;22.70;99.90;;;;;;5072135;28;20043;-87
2021/08/15 09:19:32;;;;;;;8.50;4.90;;;22.60;99.90;;;;;;5071308;28;20033;-88
2021/08/15 09:22:10;;;;;;;9.07;4.68;;;22.60;99.90;;;;;;5072985;28;20036;-87
2021/08/15 09:25:13;;;;;;;7.63;5.13;;;22.60;99.90;;;;;;5072722;28;20024;-86
2021/08/15 09:27:56;;;;;;;8.17;4.43;;;22.60;99.90;;;;;;5072657;28;20070;-87
2021/08/15 09:30:27;;;;;;;8.70;4.75;;;22.70;99.90;;;;;;5073401;28;20024;-88
2021/08/15 09:33:07;;;;;;;9.27;4.63;;;22.70;99.90;;;;;;5073988;28;20063;-87
2021/08/15 09:35:41;;;;;;;7.90;3.67;;;22.90;99.90;;;;;;5072153;28;20069;-87
2021/08/15 09:38:14;;;;;;;8.57;4.70;;;23.10;99.90;;;;;;5072891;28;20020;-87
2021/08/15 09:40:45;;;;;;;7.88;4.45;;;23.30;99.90;;;;;;5073809;28;20072;-88
2021/08/15 09:43:18;;;;;;;6.97;3.50;;;23.70;99.90;;;;;;5056637;28;20025;-88
2021/08/15 09:45:48;;;;;;;6.47;3.60;;;25.10;99.90;;;;;;5072396;28;20562;-91
2021/08/15 09:48:28;;;;;;;7.63;3.78;;;26.10;99.90;;;;;;5070998;28;20043;-88
2021/08/15 09:51:03;;;;;;;7.40;3.65;;;26.30;99.90;;;;;;5087341;28;20030;-88
2021/08/15 09:53:33;;;;;;;6.90;3.92;;;26.80;99.90;;;;;;5059025;28;20097;-89
2021/08/15 09:55:59;;;;;;;11.35;4.38;;;27.90;99.90;;;;;;5085600;28;20357;-87
2021/08/15 09:58:28;;;;;;;8.27;3.97;;;28.30;99.90;;;;;;5083398;28;20031;-88
2021/08/15 10:00:55;;;;;;;8.45;3.97;;;28.00;99.90;;;;;;5075984;28;20396;-87
2021/08/15 10:03:22;;;;;;;6.72;3.90;;;27.90;99.90;;;;;;5087527;28;20052;-87
2021/08/15 10:05:48;;;;;;;6.63;3.25;;;28.20;99.90;;;;;;5071302;28;20086;-87
2021/08/15 10:08:14;;;;;;;7.50;3.50;;;28.40;99.90;;;;;;5073277;28;20021;-87
2021/08/15 10:10:40;;;;;;;6.43;3.10;;;28.70;99.90;;;;;;5071721;28;20045;-87
2021/08/15 10:13:07;;;;;;;7.18;3.30;;;29.10;99.00;;;;;;5071611;28;20538;-88
2021/08/15 10:15:39;;;;;;;6.00;3.10;;;29.20;98.10;;;;;;5071066;28;20513;-86
2021/08/15 10:18:10;;;;;;;6.10;3.17;;;29.40;97.30;;;;;;5054716;28;20119;-88
2021/08/15 10:20:36;;;;;;;5.65;2.78;;;29.80;96.30;;;;;;5071527;28;20028;-87
2021/08/15 10:23:09;;;;;;;4.13;2.25;;;29.90;95.50;;;;;;5071785;28;20025;-87
2021/08/15 10:25:40;;;;;;;3.95;2.25;;;29.60;94.90;;;;;;5072434;28;20069;-87
2021/08/15 10:28:08;;;;;;;4.40;2.20;;;29.60;94.70;;;;;;5051278;28;20017;-87
2021/08/15 10:30:36;;;;;;;4.90;1.85;;;29.70;93.30;;;;;;5052576;28;20060;-87
2021/08/15 10:33:05;;;;;;;4.97;2.35;;;30.00;93.10;;;;;;5056440;28;20495;-88
2021/08/15 10:35:32;;;;;;;3.22;2.03;;;30.40;92.30;;;;;;5069057;28;20023;-86
2021/08/15 10:37:59;;;;;;;3.15;1.77;;;30.80;91.80;;;;;;5071800;28;20101;-87
2021/08/15 10:40:41;;;;;;;6.32;2.65;;;31.40;91.50;;;;;;5070169;28;20116;-88
2021/08/15 10:43:10;;;;;;;4.75;2.20;;;31.40;88.20;;;;;;5071366;28;20128;-88
2021/08/15 10:45:36;;;;;;;4.72;2.25;;;31.40;89.90;;;;;;5071468;28;20106;-89
2021/08/15 10:48:05;;;;;;;4.50;1.90;;;31.80;89.70;;;;;;5070104;28;20079;-88
2021/08/15 10:50:53;;;;;;;4.20;2.10;;;32.00;88.80;;;;;;5072401;28;20034;-88
2021/08/15 10:53:32;;;;;;;4.25;2.28;;;32.40;88.60;;;;;;5070824;28;20094;-88
2021/08/15 10:56:09;;;;;;;4.93;2.72;;;32.50;87.40;;;;;;5072171;28;20104;-88
2021/08/15 10:58:50;;;;;;;3.75;2.13;;;32.40;85.30;;;;;;5072517;28;20028;-88
2021/08/15 11:01:18;;;;;;;7.25;2.53;;;32.70;86.40;;;;;;5070930;28;20060;-88
2021/08/15 11:03:52;;;;;;;3.90;2.38;;;32.80;85.60;;;;;;5070916;28;20017;-88
2021/08/15 11:06:30;;;;;;;4.40;2.15;;;32.70;83.70;;;;;;5071167;28;20030;-88
2021/08/15 11:08:57;;;;;;;5.22;2.00;;;32.60;84.80;;;;;;5071030;28;20366;-89
2021/08/15 11:11:26;;;;;;;2.70;1.83;;;32.90;85.00;;;;;;5070319;28;20032;-89
2021/08/15 11:14:20;;;;;;;4.50;2.30;;;33.20;84.50;;;;;;5070667;28;20590;-89
2021/08/15 11:16:53;;;;;;;2.95;1.85;;;32.80;83.60;;;;;;5066186;28;20032;-88
2021/08/15 11:19:19;;;;;;;3.05;1.40;;;32.00;82.70;;;;;;5072084;28;20073;-88
2021/08/15 11:22:17;;;;;;;3.40;1.80;;;31.50;84.00;;;;;;5070309;28;20119;-88
2021/08/15 11:24:43;;;;;;;3.03;1.70;;;31.20;83.80;;;;;;5070334;28;20021;-88
2021/08/15 11:27:11;;;;;;;4.28;1.90;;;30.80;84.50;;;;;;5070622;28;20434;-89
2021/08/15 11:29:41;;;;;;;3.50;1.70;;;30.50;83.80;;;;;;5070331;28;20062;-88
2021/08/15 11:32:28;;;;;;;3.45;1.92;;;30.00;84.40;;;;;;5070922;28;20124;-88
2021/08/15 11:35:07;;;;;;;3.35;1.67;;;29.70;84.80;;;;;;5071043;28;20029;-88
2021/08/15 11:37:39;;;;;;;2.90;1.50;;;29.70;85.80;;;;;;5070575;28;20477;-88
2021/08/15 11:40:15;;;;;;;2.85;1.58;;;29.90;86.00;;;;;;5069885;28;20079;-89
2021/08/15 11:42:41;;;;;;;2.53;1.52;;;30.00;87.60;;;;;;5071600;28;20050;-88
2021/08/15 11:45:08;;;;;;;3.25;1.77;;;30.50;88.00;;;;;;5069998;28;20127;-88
2021/08/15 11:47:35;;;;;;;3.45;1.67;;;31.20;88.10;;;;;;5070081;28;20115;-88
2021/08/15 11:50:16;;;;;;;4.63;2.33;;;31.90;87.20;;;;;;5069998;28;20028;-88
2021/08/15 11:52:42;;;;;;;4.07;2.30;;;31.70;84.00;;;;;;5070767;28;20032;-89
2021/08/15 11:55:22;;;;;;;4.15;2.10;;;31.40;83.70;;;;;;5070174;28;20017;-88
2021/08/15 11:57:53;;;;;;;4.22;1.90;;;31.50;82.80;;;;;;5070372;28;20025;-90
2021/08/15 12:00:34;;;;;;;3.20;1.73;;;31.70;82.00;;;;;;5069903;28;20071;-89
2021/08/15 12:03:12;;;;;;;4.25;2.00;;;31.60;81.70;;;;;;5069781;28;20133;-89
2021/08/15 12:05:52;;;;;;;3.30;1.80;;;31.60;82.10;;;;;;5069655;28;20066;-88
2021/08/15 12:08:31;;;;;;;2.15;1.40;;;31.60;82.50;;;;;;5070245;28;20024;-88
2021/08/15 12:10:56;;;;;;;2.88;1.60;;;32.20;83.60;;;;;;5071148;28;20027;-88
2021/08/15 12:13:39;;;;;;;3.08;1.55;;;32.80;81.70;;;;;;5069999;28;20021;-88
2021/08/15 12:16:09;;;;;;;3.13;1.63;;;32.50;82.60;;;;;;5069725;28;20040;-90
2021/08/15 12:18:46;;;;;;;2.72;1.50;;;32.40;82.90;;;;;;5071461;28;20016;-88
2021/08/15 12:21:27;;;;;;;3.10;1.40;;;32.10;83.90;;;;;;5071534;28;20028;-90
2021/08/15 12:24:02;;;;;;;3.72;1.58;;;31.70;81.50;;;;;;5069862;28;20024;-88
2021/08/15 12:26:34;;;;;;;3.45;1.90;;;31.20;80.60;;;;;;5070093;28;20021;-89
2021/08/15 12:29:04;;;;;;;3.10;1.65;;;30.70;82.30;;;;;;5069676;28;20426;-88
2021/08/15 12:31:32;;;;;;;2.97;1.85;;;30.40;82.60;;;;;;5069877;28;20055;-88
2021/08/15 12:34:10;;;;;;;2.80;1.65;;;30.60;82.50;;;;;;5053521;28;20029;-89
2021/08/15 12:36:41;;;;;;;5.35;1.83;;;31.00;82.10;;;;;;5069697;28;20028;-89
2021/08/15 12:39:07;;;;;;;3.03;1.70;;;31.40;82.00;;;;;;5069970;28;20023;-89
2021/08/15 12:41:50;;;;;;;3.08;1.77;;;31.30;81.20;;;;;;5070900;28;20380;-88
2021/08/15 12:44:22;;;;;;;2.72;1.58;;;31.40;81.00;;;;;;5070892;28;20060;-88
2021/08/15 12:47:03;;;;;;;3.45;1.60;;;31.30;81.80;;;;;;5052872;28;20031;-87
2021/08/15 12:49:38;;;;;;;1.85;1.35;;;31.30;84.10;;;;;;5069844;28;20067;-90